| time (UTC) | temp F | wind direction | speed MPH | gust MPH | rain 1hr in | rain 24hr in | rain mn in | humidity % | barometer mb |
| 20260905220255 | 67 | 322 | 1.0 | 0.0 | 0.00 | 0.00 | 0.04 | 84 | 1011.7 |
| 20260905220137 | 67 | 314 | 1.0 | 0.0 | 0.00 | 0.00 | 0.04 | 84 | 1011.7 |
| 20260905215747 | 67 | 316 | 1.0 | 0.0 | 0.00 | 0.00 | 0.04 | 83 | 1011.7 |
| 20260905215249 | 67 | 327 | 1.0 | 0.0 | 0.00 | 0.00 | 0.03 | 83 | 1011.7 |
| 20260905213753 | 68 | 336 | 0.0 | 0.0 | 0.00 | 0.00 | 0.03 | 80 | 1011.7 |
| 20260905203742 | 69 | 327 | 1.0 | 0.0 | 0.00 | 0.00 | 0.00 | 74 | 1011.2 |
| 20260905203248 | 69 | 341 | 1.0 | 0.0 | 0.00 | 0.00 | 0.00 | 75 | 1011.2 |
| 20260905203130 | 69 | 344 | 1.0 | 0.0 | 0.00 | 0.00 | 0.00 | 75 | 1011.2 |
| 20260905202740 | 69 | 333 | 1.0 | 0.0 | 0.00 | 0.00 | 0.00 | 75 | 1011.2 |
| 20260905202238 | 69 | 336 | 1.0 | 0.0 | 0.00 | 0.00 | 0.00 | 75 | 1011.2 |
| 20260905201253 | 69 | 326 | 1.0 | 0.0 | 0.00 | 0.00 | 0.00 | 76 | 1011.2 |
| 20260905200741 | 69 | 326 | 1.0 | 0.0 | 0.00 | 0.00 | 0.00 | 76 | 1011.2 |
| 20260905200248 | 69 | 305 | 1.0 | 0.0 | 0.00 | 0.00 | 0.00 | 76 | 1011.2 |
| 20260905195743 | 69 | 313 | 1.0 | 0.0 | 0.00 | 0.00 | 0.00 | 76 | 1011.2 |
| 20260905194740 | 69 | 337 | 1.0 | 0.0 | 0.00 | 0.00 | 0.00 | 75 | 1011.2 |
| 20260905193735 | 69 | 319 | 1.0 | 0.0 | 0.00 | 0.00 | 0.00 | 75 | 1011.2 |
| 20260905193126 | 69 | 336 | 1.0 | 0.0 | 0.00 | 0.00 | 0.00 | 75 | 1011.2 |
| 20260905192737 | 69 | 330 | 1.0 | 0.0 | 0.00 | 0.00 | 0.00 | 75 | 1011.2 |
| 20260905192235 | 69 | 334 | 1.0 | 0.0 | 0.00 | 0.00 | 0.00 | 75 | 1011.2 |
| 20260905191748 | 69 | 330 | 1.0 | 0.0 | 0.00 | 0.00 | 0.00 | 75 | 1011.2 |
| 20260905191244 | 69 | 330 | 1.0 | 0.0 | 0.00 | 0.00 | 0.00 | 75 | 1011.2 |
| 20260905190746 | 69 | 329 | 1.0 | 0.0 | 0.00 | 0.00 | 0.00 | 75 | 1011.2 |
| 20260905190252 | 69 | 346 | 1.0 | 0.0 | 0.00 | 0.00 | 0.00 | 75 | 1011.2 |
| 20260905185254 | 69 | 316 | 1.0 | 0.0 | 0.00 | 0.00 | 0.00 | 76 | 1011.3 |
| 20260905184748 | 69 | 333 | 1.0 | 0.0 | 0.00 | 0.00 | 0.00 | 76 | 1011.3 |
| 20260905183747 | 69 | 330 | 1.0 | 0.0 | 0.00 | 0.00 | 0.00 | 77 | 1011.3 |
| 20260905183254 | 69 | 316 | 1.0 | 0.0 | 0.00 | 0.00 | 0.00 | 77 | 1011.3 |
| 20260905183137 | 69 | 323 | 1.0 | 0.0 | 0.00 | 0.00 | 0.00 | 77 | 1011.3 |
| 20260905182254 | 69 | 324 | 1.0 | 0.0 | 0.00 | 0.00 | 0.00 | 78 | 1011.2 |
| 20260905181744 | 69 | 326 | 1.0 | 0.0 | 0.00 | 0.00 | 0.00 | 78 | 1011.2 |
| 20260905181239 | 69 | 330 | 1.0 | 0.0 | 0.00 | 0.00 | 0.00 | 79 | 1011.5 |
| 20260905180740 | 69 | 336 | 1.0 | 0.0 | 0.00 | 0.00 | 0.00 | 79 | 1011.5 |
| 20260905180129 | 69 | 313 | 1.0 | 0.0 | 0.00 | 0.00 | 0.00 | 79 | 1011.5 |
| 20260905175740 | 69 | 302 | 1.0 | 0.0 | 0.00 | 0.00 | 0.00 | 79 | 1011.3 |
| 20260905175237 | 69 | 331 | 0.0 | 0.0 | 0.00 | 0.00 | 0.00 | 79 | 1011.3 |
| 20260905174748 | 69 | 326 | 0.0 | 0.0 | 0.00 | 0.00 | 0.00 | 79 | 1011.3 |
| 20260905174250 | 69 | 326 | 0.0 | 0.0 | 0.00 | 0.00 | 0.00 | 79 | 1011.4 |
| 20260905173241 | 69 | 316 | 0.0 | 0.0 | 0.00 | 0.00 | 0.00 | 79 | 1011.4 |
| 20260905172741 | 69 | 299 | 1.0 | 0.0 | 0.00 | 0.00 | 0.00 | 79 | 1011.4 |
| 20260905172238 | 69 | 317 | 0.0 | 0.0 | 0.00 | 0.00 | 0.00 | 79 | 1011.4 |
| 20260905171751 | 69 | 326 | 0.0 | 0.0 | 0.00 | 0.00 | 0.00 | 79 | 1011.4 |
| 20260905171252 | 69 | 327 | 0.0 | 0.0 | 0.00 | 0.00 | 0.00 | 79 | 1011.3 |
| 20260905170252 | 69 | 327 | 0.0 | 0.0 | 0.00 | 0.00 | 0.00 | 79 | 1011.3 |
| 20260905170132 | 69 | 327 | 0.0 | 0.0 | 0.00 | 0.00 | 0.00 | 79 | 1011.3 |
| 20260905165741 | 69 | 326 | 0.0 | 0.0 | 0.00 | 0.00 | 0.00 | 79 | 1011.2 |
| 20260905164749 | 70 | 312 | 1.0 | 0.0 | 0.00 | 0.00 | 0.00 | 79 | 1011.2 |
| 20260905164250 | 70 | 323 | 1.0 | 0.0 | 0.00 | 0.00 | 0.00 | 78 | 1011.3 |
| 20260905163747 | 70 | 322 | 0.0 | 0.0 | 0.00 | 0.00 | 0.00 | 78 | 1011.3 |
| 20260905162253 | 70 | 322 | 1.0 | 0.0 | 0.00 | 0.00 | 0.00 | 78 | 1011.2 |
| 20260905161746 | 70 | 330 | 0.0 | 0.0 | 0.00 | 0.00 | 0.00 | 78 | 1011.2 |
| 20260905161254 | 70 | 324 | 0.0 | 0.0 | 0.00 | 0.00 | 0.00 | 78 | 1011.3 |
| 20260905160744 | 70 | 327 | 0.0 | 0.0 | 0.00 | 0.00 | 0.00 | 78 | 1011.3 |
| 20260905160256 | 70 | 329 | 0.0 | 0.0 | 0.00 | 0.00 | 0.00 | 78 | 1011.3 |
| 20260905155254 | 70 | 322 | 1.0 | 0.0 | 0.00 | 0.00 | 0.00 | 78 | 1011.3 |
| 20260905154745 | 70 | 327 | 1.0 | 0.0 | 0.00 | 0.00 | 0.00 | 78 | 1011.3 |
| 20260905153750 | 70 | 324 | 0.0 | 0.0 | 0.00 | 0.00 | 0.00 | 78 | 1011.5 |
| 20260905153136 | 70 | 324 | 0.0 | 0.0 | 0.00 | 0.00 | 0.00 | 78 | 1011.5 |
| 20260905152249 | 70 | 327 | 0.0 | 0.0 | 0.00 | 0.00 | 0.00 | 78 | 1011.4 |
| 20260905151739 | 70 | 326 | 0.0 | 0.0 | 0.00 | 0.00 | 0.00 | 78 | 1011.4 |
| 20260905151244 | 70 | 326 | 0.0 | 0.0 | 0.00 | 0.00 | 0.00 | 78 | 1011.5 |
| 20260905150749 | 70 | 326 | 0.0 | 0.0 | 0.00 | 0.00 | 0.00 | 77 | 1011.5 |
| 20260905150251 | 70 | 326 | 0.0 | 0.0 | 0.00 | 0.00 | 0.00 | 77 | 1011.5 |
| 20260905150133 | 70 | 327 | 0.0 | 0.0 | 0.00 | 0.00 | 0.00 | 77 | 1011.5 |
| 20260905145750 | 70 | 326 | 0.0 | 0.0 | 0.00 | 0.00 | 0.21 | 77 | 1011.5 |
| 20260905145244 | 70 | 324 | 0.0 | 0.0 | 0.00 | 0.00 | 0.21 | 77 | 1011.5 |
| 20260905144736 | 70 | 1 | 0.0 | 0.0 | 0.00 | 0.00 | 0.21 | 77 | 1011.5 |
| 20260905143736 | 70 | 12 | 0.0 | 0.0 | 0.00 | 0.00 | 0.21 | 76 | 1011.5 |
| 20260905143235 | 70 | 327 | 0.0 | 0.0 | 0.00 | 0.00 | 0.21 | 75 | 1011.5 |
| 20260905143138 | 70 | 326 | 0.0 | 0.0 | 0.00 | 0.00 | 0.21 | 75 | 1011.5 |
| 20260905142752 | 70 | 333 | 0.0 | 0.0 | 0.00 | 0.00 | 0.21 | 75 | 1011.5 |
| 20260905142253 | 70 | 2 | 0.0 | 0.0 | 0.00 | 0.00 | 0.21 | 74 | 1011.5 |
| 20260905141739 | 70 | 8 | 0.0 | 0.0 | 0.00 | 0.00 | 0.21 | 74 | 1011.5 |
| 20260905013244 | 67 | 334 | 1.0 | 0.0 | 0.00 | 0.00 | 0.21 | 93 | 1009.9 |
| 20260905013131 | 67 | 358 | 1.0 | 0.0 | 0.00 | 0.00 | 0.21 | 93 | 1009.9 |
| 20260905012748 | 67 | 353 | 1.0 | 0.0 | 0.00 | 0.00 | 0.21 | 93 | 1009.8 |
| 20260905012235 | 67 | 21 | 1.0 | 0.0 | 0.00 | 0.00 | 0.21 | 93 | 1009.8 |
| 20260905011750 | 67 | 5 | 1.0 | 0.0 | 0.00 | 0.00 | 0.21 | 93 | 1009.8 |
| 20260905010736 | 67 | 353 | 1.0 | 0.0 | 0.00 | 0.00 | 0.21 | 93 | 1009.7 |
| 20260905010143 | 67 | 10 | 2.0 | 0.0 | 0.00 | 0.00 | 0.21 | 93 | 1009.7 |
| 20260905005747 | 67 | 42 | 2.0 | 0.0 | 0.00 | 0.00 | 0.21 | 93 | 1009.6 |
| 20260905005237 | 68 | 14 | 1.0 | 0.0 | 0.00 | 0.00 | 0.21 | 93 | 1009.7 |
| 20260905004745 | 68 | 19 | 0.0 | 0.0 | 0.00 | 0.00 | 0.21 | 93 | 1009.7 |
| 20260905003750 | 68 | 355 | 1.0 | 0.0 | 0.00 | 0.00 | 0.21 | 93 | 1009.6 |
| 20260905003249 | 68 | 355 | 1.0 | 0.0 | 0.00 | 0.00 | 0.21 | 93 | 1009.6 |
| 20260905003135 | 68 | 21 | 1.0 | 0.0 | 0.00 | 0.00 | 0.21 | 93 | 1009.6 |
| 20260905002253 | 68 | 25 | 1.0 | 0.0 | 0.00 | 0.00 | 0.21 | 93 | 1009.6 |
| 20260905001743 | 68 | 29 | 1.0 | 0.0 | 0.00 | 0.00 | 0.21 | 93 | 1009.6 |
| 20260905001254 | 68 | 29 | 1.0 | 0.0 | 0.00 | 0.00 | 0.21 | 93 | 1009.5 |
| 20260905000750 | 68 | 28 | 1.0 | 0.0 | 0.00 | 0.00 | 0.21 | 93 | 1009.5 |
| 20260905000242 | 68 | 7 | 0.0 | 0.0 | 0.00 | 0.00 | 0.21 | 93 | 1009.5 |
| 20260905000129 | 68 | 7 | 1.0 | 0.0 | 0.00 | 0.00 | 0.21 | 93 | 1009.5 |
| 20260904235749 | 68 | 11 | 1.0 | 0.0 | 0.00 | 0.00 | 0.21 | 94 | 1009.2 |
| 20260904235236 | 68 | 17 | 1.0 | 0.0 | 0.00 | 0.00 | 0.21 | 93 | 1009.2 |
| 20260904234747 | 68 | 32 | 0.0 | 0.0 | 0.00 | 0.00 | 0.21 | 93 | 1009.2 |
| 20260904234238 | 67 | 8 | 1.0 | 0.0 | 0.00 | 0.00 | 0.21 | 93 | 1009.0 |
| 20260904233746 | 67 | 35 | 1.0 | 0.0 | 0.00 | 0.00 | 0.21 | 93 | 1009.0 |
| 20260904233243 | 67 | 39 | 0.0 | 0.0 | 0.00 | 0.00 | 0.21 | 93 | 1009.0 |
| 20260904233147 | 67 | 43 | 0.0 | 0.0 | 0.00 | 0.00 | 0.21 | 93 | 1009.0 |
| 20260904232748 | 67 | 25 | 0.0 | 0.0 | 0.00 | 0.00 | 0.21 | 93 | 1008.9 |
| 20260904231737 | 67 | 35 | 0.0 | 0.0 | 0.00 | 0.00 | 0.21 | 94 | 1008.9 |
| 20260904231247 | 67 | 35 | 0.0 | 0.0 | 0.00 | 0.00 | 0.21 | 94 | 1008.9 |
| 20260904230242 | 67 | 32 | 1.0 | 0.0 | 0.00 | 0.00 | 0.21 | 93 | 1008.9 |
| 20260904230146 | 67 | 29 | 1.0 | 0.0 | 0.00 | 0.00 | 0.21 | 93 | 1008.9 |
| 20260904225750 | 66 | 35 | 1.0 | 0.0 | 0.00 | 0.00 | 0.21 | 93 | 1008.8 |
| 20260904225238 | 66 | 38 | 2.0 | 0.0 | 0.00 | 0.00 | 0.21 | 93 | 1008.8 |
| 20260904224755 | 66 | 36 | 3.0 | 0.0 | 0.00 | 0.00 | 0.21 | 93 | 1008.8 |
| 20260904224242 | 67 | 42 | 2.0 | 0.0 | 0.00 | 0.00 | 0.21 | 93 | 1008.6 |
| 20260904223751 | 67 | 32 | 0.0 | 0.0 | 0.00 | 0.00 | 0.20 | 93 | 1008.6 |
| 20260904223247 | 68 | 34 | 0.0 | 0.0 | 0.00 | 0.00 | 0.20 | 93 | 1008.6 |
| 20260904223131 | 68 | 35 | 0.0 | 0.0 | 0.00 | 0.00 | 0.20 | 93 | 1008.6 |
| 20260904222754 | 68 | 35 | 0.0 | 0.0 | 0.00 | 0.00 | 0.20 | 93 | 1008.6 |
| 20260904222242 | 67 | 34 | 0.0 | 0.0 | 0.00 | 0.00 | 0.20 | 93 | 1008.6 |
| 20260904221752 | 67 | 43 | 0.0 | 0.0 | 0.00 | 0.00 | 0.20 | 93 | 1008.6 |
| 20260904221242 | 67 | 43 | 0.0 | 0.0 | 0.00 | 0.00 | 0.20 | 93 | 1008.5 |
| 20260904220737 | 67 | 43 | 0.0 | 0.0 | 0.00 | 0.00 | 0.20 | 93 | 1008.5 |
| 20260904220144 | 67 | 43 | 0.0 | 0.0 | 0.00 | 0.00 | 0.20 | 93 | 1008.5 |
| 20260904215743 | 67 | 43 | 0.0 | 0.0 | 0.00 | 0.00 | 0.20 | 93 | 1008.4 |
| 20260904215254 | 67 | 45 | 0.0 | 0.0 | 0.00 | 0.00 | 0.20 | 93 | 1008.4 |
| 20260904214239 | 67 | 43 | 0.0 | 0.0 | 0.00 | 0.00 | 0.20 | 93 | 1008.2 |
| 20260904213746 | 67 | 43 | 0.0 | 0.0 | 0.00 | 0.00 | 0.20 | 93 | 1008.2 |
| 20260904213239 | 67 | 43 | 0.0 | 0.0 | 0.00 | 0.00 | 0.20 | 93 | 1008.2 |
| 20260904213127 | 67 | 43 | 0.0 | 0.0 | 0.00 | 0.00 | 0.20 | 93 | 1008.2 |
| 20260904212743 | 67 | 43 | 0.0 | 0.0 | 0.00 | 0.00 | 0.20 | 93 | 1008.1 |
| 20260904211247 | 67 | 36 | 1.0 | 0.0 | 0.00 | 0.00 | 0.20 | 93 | 1008.1 |
| 20260904210741 | 67 | 45 | 2.0 | 0.0 | 0.00 | 0.00 | 0.20 | 93 | 1008.1 |
| 20260904210127 | 67 | 45 | 1.0 | 0.0 | 0.00 | 0.00 | 0.20 | 92 | 1008.1 |
| 20260904205743 | 67 | 31 | 0.0 | 0.0 | 0.00 | 0.00 | 0.20 | 93 | 1008.3 |
| 20260904205254 | 68 | 7 | 0.0 | 0.0 | 0.00 | 0.00 | 0.20 | 93 | 1008.3 |
| 20260904204749 | 68 | 8 | 0.0 | 0.0 | 0.00 | 0.00 | 0.20 | 93 | 1008.3 |
| 20260904204240 | 68 | 7 | 0.0 | 0.0 | 0.00 | 0.00 | 0.20 | 93 | 1008.0 |
| 20260904203753 | 68 | 8 | 0.0 | 0.0 | 0.00 | 0.00 | 0.20 | 93 | 1008.0 |
| 20260904203253 | 68 | 8 | 0.0 | 0.0 | 0.00 | 0.00 | 0.20 | 93 | 1008.0 |
| 20260904203136 | 68 | 7 | 0.0 | 0.0 | 0.00 | 0.00 | 0.20 | 93 | 1008.0 |
| 20260904202738 | 68 | 8 | 0.0 | 0.0 | 0.00 | 0.00 | 0.20 | 93 | 1007.8 |
| 20260904202247 | 68 | 8 | 0.0 | 0.0 | 0.00 | 0.00 | 0.20 | 93 | 1007.8 |
| 20260904201740 | 68 | 7 | 0.0 | 0.0 | 0.00 | 0.00 | 0.19 | 92 | 1007.8 |
| 20260904201247 | 68 | 8 | 0.0 | 0.0 | 0.00 | 0.00 | 0.19 | 93 | 1008.0 |
| 20260904200739 | 68 | 67 | 0.0 | 0.0 | 0.00 | 0.00 | 0.19 | 92 | 1008.0 |
| 20260904200139 | 68 | 67 | 0.0 | 0.0 | 0.00 | 0.00 | 0.19 | 92 | 1008.0 |
| 20260904195739 | 68 | 67 | 0.0 | 0.0 | 0.00 | 0.00 | 0.18 | 92 | 1007.5 |
| 20260904195251 | 68 | 67 | 0.0 | 0.0 | 0.00 | 0.00 | 0.18 | 92 | 1007.5 |
| 20260904194743 | 68 | 67 | 0.0 | 0.0 | 0.00 | 0.00 | 0.17 | 92 | 1007.5 |
| 20260904194254 | 68 | 67 | 0.0 | 0.0 | 0.00 | 0.00 | 0.17 | 92 | 1007.2 |
| 20260904193742 | 68 | 67 | 0.0 | 0.0 | 0.00 | 0.00 | 0.17 | 92 | 1007.2 |
| 20260904193238 | 68 | 67 | 0.0 | 0.0 | 0.00 | 0.00 | 0.17 | 92 | 1007.2 |
| 20260904193142 | 68 | 67 | 0.0 | 0.0 | 0.00 | 0.00 | 0.17 | 92 | 1007.2 |
| 20260904192743 | 68 | 67 | 0.0 | 0.0 | 0.00 | 0.00 | 0.17 | 92 | 1006.8 |
| 20260904192236 | 68 | 67 | 0.0 | 0.0 | 0.00 | 0.00 | 0.17 | 92 | 1006.8 |
| 20260904191746 | 68 | 67 | 0.0 | 0.0 | 0.00 | 0.00 | 0.17 | 92 | 1006.8 |
| 20260904191250 | 68 | 67 | 0.0 | 0.0 | 0.00 | 0.00 | 0.17 | 92 | 1007.4 |
| 20260904190740 | 68 | 67 | 0.0 | 0.0 | 0.00 | 0.00 | 0.16 | 92 | 1007.4 |
| 20260904190236 | 68 | 67 | 0.0 | 0.0 | 0.00 | 0.00 | 0.16 | 92 | 1007.4 |
| 20260904190142 | 68 | 67 | 0.0 | 0.0 | 0.00 | 0.00 | 0.16 | 92 | 1007.4 |
| 20260904185743 | 68 | 67 | 0.0 | 0.0 | 0.00 | 0.00 | 0.16 | 92 | 1007.5 |
| 20260904184754 | 68 | 67 | 0.0 | 0.0 | 0.00 | 0.00 | 0.16 | 92 | 1007.5 |
| 20260904184242 | 68 | 67 | 0.0 | 0.0 | 0.00 | 0.00 | 0.15 | 92 | 1007.5 |
| 20260904183753 | 68 | 67 | 0.0 | 0.0 | 0.00 | 0.00 | 0.15 | 92 | 1007.5 |
| 20260904183248 | 67 | 67 | 0.0 | 0.0 | 0.00 | 0.00 | 0.14 | 92 | 1007.5 |
| 20260904183132 | 67 | 67 | 0.0 | 0.0 | 0.00 | 0.00 | 0.14 | 92 | 1007.5 |
| 20260904182748 | 67 | 67 | 0.0 | 0.0 | 0.00 | 0.00 | 0.14 | 92 | 1007.6 |
| 20260904182235 | 67 | 67 | 0.0 | 0.0 | 0.00 | 0.00 | 0.14 | 92 | 1007.6 |
| 20260904181753 | 67 | 67 | 0.0 | 0.0 | 0.00 | 0.00 | 0.13 | 92 | 1007.6 |
| 20260904180740 | 67 | 67 | 0.0 | 0.0 | 0.00 | 0.00 | 0.13 | 92 | 1007.9 |
| 20260904180237 | 67 | 67 | 0.0 | 0.0 | 0.00 | 0.00 | 0.13 | 91 | 1007.9 |
| 20260904180141 | 67 | 69 | 0.0 | 0.0 | 0.00 | 0.00 | 0.13 | 91 | 1007.9 |
| 20260904175743 | 67 | 67 | 0.0 | 0.0 | 0.00 | 0.00 | 0.13 | 91 | 1007.5 |
| 20260904175250 | 67 | 69 | 0.0 | 0.0 | 0.00 | 0.00 | 0.13 | 91 | 1007.5 |
| 20260904174742 | 67 | 67 | 0.0 | 0.0 | 0.00 | 0.00 | 0.13 | 91 | 1007.5 |
| 20260904174248 | 67 | 67 | 0.0 | 0.0 | 0.00 | 0.00 | 0.12 | 91 | 1007.4 |
| 20260904173736 | 67 | 67 | 0.0 | 0.0 | 0.00 | 0.00 | 0.12 | 91 | 1007.4 |
| 20260904173253 | 67 | 67 | 0.0 | 0.0 | 0.00 | 0.00 | 0.12 | 91 | 1007.4 |
| 20260904173137 | 67 | 67 | 0.0 | 0.0 | 0.00 | 0.00 | 0.11 | 91 | 1007.4 |
| 20260904172737 | 67 | 67 | 0.0 | 0.0 | 0.00 | 0.00 | 0.11 | 91 | 1007.4 |
| 20260904172245 | 67 | 67 | 1.0 | 0.0 | 0.00 | 0.00 | 0.11 | 91 | 1007.4 |
| 20260904171735 | 67 | 67 | 0.0 | 0.0 | 0.00 | 0.00 | 0.11 | 91 | 1007.4 |
| 20260904171242 | 68 | 62 | 0.0 | 0.0 | 0.00 | 0.00 | 0.11 | 91 | 1008.0 |
| 20260904170239 | 67 | 77 | 0.0 | 0.0 | 0.00 | 0.00 | 0.10 | 91 | 1008.0 |
| 20260904170143 | 67 | 77 | 0.0 | 0.0 | 0.00 | 0.00 | 0.10 | 91 | 1008.0 |
| 20260904165744 | 67 | 77 | 0.0 | 0.0 | 0.00 | 0.00 | 0.09 | 91 | 1008.4 |
| 20260904165248 | 68 | 76 | 0.0 | 0.0 | 0.00 | 0.00 | 0.09 | 91 | 1008.4 |
| 20260904164740 | 68 | 77 | 0.0 | 0.0 | 0.00 | 0.00 | 0.09 | 91 | 1008.4 |
| 20260904164250 | 68 | 11 | 0.0 | 0.0 | 0.00 | 0.00 | 0.09 | 91 | 1008.1 |
| 20260904163740 | 68 | 11 | 0.0 | 0.0 | 0.00 | 0.00 | 0.08 | 91 | 1008.1 |
| 20260904163236 | 69 | 10 | 0.0 | 0.0 | 0.00 | 0.00 | 0.08 | 91 | 1008.1 |
| 20260904163140 | 69 | 10 | 0.0 | 0.0 | 0.00 | 0.00 | 0.07 | 91 | 1008.1 |
| 20260904162740 | 69 | 11 | 0.0 | 0.0 | 0.00 | 0.00 | 0.06 | 91 | 1008.0 |
| 20260904162252 | 69 | 10 | 0.0 | 0.0 | 0.00 | 0.00 | 0.06 | 91 | 1008.0 |
| 20260904161746 | 69 | 11 | 0.0 | 0.0 | 0.00 | 0.00 | 0.06 | 91 | 1008.0 |
| 20260904161235 | 69 | 8 | 0.0 | 0.0 | 0.00 | 0.00 | 0.05 | 90 | 1007.7 |
| 20260904160751 | 69 | 7 | 0.0 | 0.0 | 0.00 | 0.00 | 0.04 | 90 | 1007.7 |
| 20260904160248 | 69 | 7 | 0.0 | 0.0 | 0.00 | 0.00 | 0.03 | 90 | 1007.7 |
| 20260904160132 | 69 | 7 | 0.0 | 0.0 | 0.00 | 0.00 | 0.03 | 90 | 1007.7 |
| 20260904155747 | 69 | 7 | 0.0 | 0.0 | 0.00 | 0.00 | 0.03 | 90 | 1007.1 |
| 20260904155236 | 69 | 7 | 0.0 | 0.0 | 0.00 | 0.00 | 0.03 | 90 | 1007.1 |
| 20260904154746 | 69 | 7 | 0.0 | 0.0 | 0.00 | 0.00 | 0.02 | 90 | 1007.1 |
| 20260904154235 | 69 | 8 | 0.0 | 0.0 | 0.00 | 0.00 | 0.02 | 90 | 1008.0 |
| 20260904153745 | 69 | 8 | 0.0 | 0.0 | 0.00 | 0.00 | 0.02 | 90 | 1008.0 |
| 20260904153130 | 69 | 7 | 0.0 | 0.0 | 0.00 | 0.00 | 0.02 | 90 | 1008.0 |
| 20260904152243 | 69 | 7 | 0.0 | 0.0 | 0.00 | 0.00 | 0.01 | 90 | 1008.1 |
| 20260904151250 | 69 | 8 | 0.0 | 0.0 | 0.00 | 0.00 | 0.01 | 89 | 1007.5 |
| 20260904150745 | 69 | 8 | 0.0 | 0.0 | 0.00 | 0.00 | 0.01 | 89 | 1007.5 |
| 20260904150239 | 69 | 8 | 0.0 | 0.0 | 0.00 | 0.00 | 0.00 | 89 | 1007.5 |
| 20260904150142 | 69 | 8 | 0.0 | 0.0 | 0.00 | 0.00 | 0.00 | 89 | 1007.5 |
| 20260904145743 | 69 | 8 | 0.0 | 0.0 | 0.00 | 0.00 | 0.23 | 89 | 1007.6 |
| 20260904145254 | 69 | 7 | 0.0 | 0.0 | 0.00 | 0.00 | 0.22 | 89 | 1007.6 |
| 20260904144748 | 69 | 8 | 0.0 | 0.0 | 0.00 | 0.00 | 0.22 | 89 | 1007.6 |
| 20260904144236 | 69 | 8 | 0.0 | 0.0 | 0.00 | 0.00 | 0.22 | 89 | 1007.5 |
| 20260904143241 | 69 | 8 | 0.0 | 0.0 | 0.00 | 0.00 | 0.22 | 89 | 1007.5 |
| 20260904143128 | 69 | 8 | 0.0 | 0.0 | 0.00 | 0.00 | 0.22 | 89 | 1007.5 |
| 20260904141738 | 69 | 7 | 0.0 | 0.0 | 0.00 | 0.00 | 0.21 | 88 | 1007.5 |
| 20260904141250 | 69 | 8 | 0.0 | 0.0 | 0.00 | 0.00 | 0.21 | 88 | 1008.3 |
| 20260904140741 | 69 | 8 | 0.0 | 0.0 | 0.00 | 0.00 | 0.20 | 88 | 1008.3 |
| 20260904140238 | 69 | 8 | 0.0 | 0.0 | 0.00 | 0.00 | 0.20 | 88 | 1008.3 |
| 20260904140141 | 69 | 8 | 0.0 | 0.0 | 0.00 | 0.00 | 0.20 | 87 | 1008.3 |
| 20260904135741 | 69 | 8 | 0.0 | 0.0 | 0.00 | 0.00 | 0.20 | 87 | 1008.7 |
| 20260904135253 | 69 | 8 | 0.0 | 0.0 | 0.00 | 0.00 | 0.20 | 88 | 1008.7 |
| 20260904134740 | 69 | 8 | 0.0 | 0.0 | 0.00 | 0.00 | 0.20 | 88 | 1008.7 |
| 20260904134248 | 69 | 7 | 0.0 | 0.0 | 0.00 | 0.00 | 0.19 | 88 | 1009.0 |
| 20260904133735 | 69 | 7 | 0.0 | 0.0 | 0.00 | 0.00 | 0.19 | 88 | 1009.0 |
| 20260904133139 | 69 | 7 | 0.0 | 0.0 | 0.00 | 0.00 | 0.19 | 88 | 1009.0 |
| 20260904132739 | 69 | 11 | 0.0 | 0.0 | 0.00 | 0.00 | 0.18 | 88 | 1008.7 |
| 20260904132252 | 70 | 11 | 0.0 | 0.0 | 0.00 | 0.00 | 0.18 | 88 | 1008.8 |
| 20260904131236 | 70 | 12 | 0.0 | 0.0 | 0.00 | 0.00 | 0.18 | 88 | 1008.9 |
| 20260904130753 | 70 | 11 | 0.0 | 0.0 | 0.00 | 0.00 | 0.17 | 87 | 1008.9 |
| 20260904130245 | 70 | 11 | 0.0 | 0.0 | 0.00 | 0.00 | 0.17 | 87 | 1008.9 |
| 20260904125244 | 70 | 11 | 0.0 | 0.0 | 0.00 | 0.00 | 0.17 | 87 | 1008.4 |
| 20260904124739 | 70 | 11 | 0.0 | 0.0 | 0.00 | 0.00 | 0.17 | 87 | 1008.4 |
| 20260904124251 | 70 | 11 | 0.0 | 0.0 | 0.00 | 0.00 | 0.16 | 87 | 1009.1 |
| 20260904123241 | 70 | 11 | 0.0 | 0.0 | 0.00 | 0.00 | 0.15 | 87 | 1009.1 |
| 20260904123145 | 70 | 11 | 0.0 | 0.0 | 0.00 | 0.00 | 0.15 | 87 | 1009.1 |
| 20260904122746 | 70 | 11 | 0.0 | 0.0 | 0.00 | 0.00 | 0.15 | 87 | 1008.7 |
| 20260904121735 | 70 | 11 | 0.0 | 0.0 | 0.00 | 0.00 | 0.14 | 86 | 1008.7 |
| 20260904121242 | 70 | 11 | 0.0 | 0.0 | 0.00 | 0.00 | 0.14 | 86 | 1008.8 |
| 20260904120738 | 70 | 11 | 0.0 | 0.0 | 0.00 | 0.00 | 0.14 | 86 | 1008.8 |
| 20260904120255 | 70 | 11 | 0.0 | 0.0 | 0.00 | 0.00 | 0.14 | 86 | 1008.8 |
| 20260904120138 | 70 | 11 | 0.0 | 0.0 | 0.00 | 0.00 | 0.14 | 86 | 1008.8 |
| 20260904115736 | 70 | 11 | 0.0 | 0.0 | 0.00 | 0.00 | 0.14 | 86 | 1009.0 |
| 20260904115245 | 71 | 12 | 0.0 | 0.0 | 0.00 | 0.00 | 0.13 | 86 | 1009.0 |
| 20260904114739 | 71 | 14 | 0.0 | 0.0 | 0.00 | 0.00 | 0.13 | 86 | 1009.0 |
| 20260904114251 | 71 | 14 | 0.0 | 0.0 | 0.00 | 0.00 | 0.13 | 86 | 1009.0 |
| 20260904113738 | 71 | 12 | 0.0 | 0.0 | 0.00 | 0.00 | 0.12 | 86 | 1009.0 |
| 20260904113236 | 72 | 12 | 0.0 | 0.0 | 0.00 | 0.00 | 0.12 | 86 | 1009.0 |
| 20260904113139 | 72 | 11 | 0.0 | 0.0 | 0.00 | 0.00 | 0.12 | 86 | 1009.0 |
| 20260904112736 | 72 | 12 | 0.0 | 0.0 | 0.00 | 0.00 | 0.12 | 86 | 1008.9 |
| 20260904112250 | 72 | 12 | 0.0 | 0.0 | 0.00 | 0.00 | 0.11 | 86 | 1008.9 |
| 20260904111739 | 72 | 12 | 0.0 | 0.0 | 0.00 | 0.00 | 0.11 | 85 | 1008.9 |
| 20260904111250 | 72 | 12 | 0.0 | 0.0 | 0.00 | 0.00 | 0.11 | 85 | 1009.1 |
| 20260904110741 | 71 | 12 | 0.0 | 0.0 | 0.00 | 0.00 | 0.10 | 84 | 1009.1 |
| 20260904110238 | 72 | 12 | 0.0 | 0.0 | 0.00 | 0.00 | 0.09 | 84 | 1009.1 |
| 20260904110142 | 72 | 11 | 0.0 | 0.0 | 0.00 | 0.00 | 0.09 | 84 | 1009.1 |
| 20260904105741 | 72 | 11 | 0.0 | 0.0 | 0.00 | 0.00 | 0.09 | 85 | 1009.0 |
| 20260904104238 | 73 | 12 | 0.0 | 0.0 | 0.00 | 0.00 | 0.09 | 85 | 1008.0 |
| 20260904103751 | 73 | 11 | 0.0 | 0.0 | 0.00 | 0.00 | 0.09 | 85 | 1008.0 |
| 20260904103252 | 73 | 11 | 0.0 | 0.0 | 0.00 | 0.00 | 0.09 | 85 | 1008.0 |
| 20260904102738 | 73 | 12 | 0.0 | 0.0 | 0.00 | 0.00 | 0.09 | 85 | 1008.0 |
| 20260904102252 | 73 | 11 | 0.0 | 0.0 | 0.00 | 0.00 | 0.09 | 84 | 1008.0 |
| 20260904101744 | 73 | 12 | 0.0 | 0.0 | 0.00 | 0.00 | 0.09 | 84 | 1008.0 |
| 20260904101256 | 73 | 12 | 0.0 | 0.0 | 0.00 | 0.00 | 0.08 | 84 | 1007.8 |
| 20260904100749 | 73 | 12 | 0.0 | 0.0 | 0.00 | 0.00 | 0.08 | 84 | 1007.8 |